Time;durP1;ratioP1;P1;durP2;ratioP2;P2;SDS_P1;SDS_P2;PMS_P1;PMS_P2;Temp;Humidity;BMP_temperature;BMP_pressure;BME280_temperature;BME280_humidity;BME280_pressure;Samples;Min_cycle;Max_cycle;Signal;HPM_P1;HPM_P2
2023/05/14 00:01:38;;;;;;;14.55;7.20;;;11.80;99.90;;;;;;4976599;28;20082;-57
2023/05/14 00:04:04;;;;;;;18.70;7.15;;;11.80;99.90;;;;;;4979658;28;20055;-57
2023/05/14 00:06:30;;;;;;;14.65;7.60;;;11.70;99.90;;;;;;4957391;28;20082;-57
2023/05/14 00:08:56;;;;;;;14.88;8.30;;;11.70;99.90;;;;;;4972350;28;20051;-57
2023/05/14 00:11:22;;;;;;;13.95;7.80;;;11.70;99.90;;;;;;4980470;28;20498;-57
2023/05/14 00:13:49;;;;;;;17.55;8.68;;;11.70;99.90;;;;;;4954708;28;20097;-55
2023/05/14 00:16:15;;;;;;;11.77;7.72;;;11.60;99.90;;;;;;4972721;28;20047;-57
2023/05/14 00:18:41;;;;;;;13.02;7.28;;;11.60;99.90;;;;;;4972271;28;20069;-55
2023/05/14 00:21:07;;;;;;;13.90;8.23;;;11.60;99.90;;;;;;4973257;28;20080;-56
2023/05/14 00:23:32;;;;;;;15.00;7.78;;;11.60;99.90;;;;;;4975442;28;20045;-56
2023/05/14 00:25:58;;;;;;;13.85;8.02;;;11.60;99.90;;;;;;4975354;28;20035;-56
2023/05/14 00:28:24;;;;;;;12.07;8.00;;;11.50;99.90;;;;;;4975525;28;20038;-56
2023/05/14 00:30:50;;;;;;;17.30;7.95;;;11.50;99.90;;;;;;4972349;28;20057;-56
2023/05/14 00:33:16;;;;;;;15.23;8.10;;;11.50;99.90;;;;;;4974150;28;20053;-56
2023/05/14 00:35:42;;;;;;;13.93;7.63;;;11.50;99.90;;;;;;4977242;28;20038;-56
2023/05/14 00:38:08;;;;;;;14.13;7.35;;;11.40;99.90;;;;;;4973541;28;20088;-57
2023/05/14 00:40:33;;;;;;;11.80;7.40;;;11.40;99.90;;;;;;4975158;28;20051;-57
2023/05/14 00:42:59;;;;;;;13.50;7.15;;;11.40;99.90;;;;;;4959684;28;20047;-57
2023/05/14 00:45:25;;;;;;;16.48;7.30;;;11.40;99.90;;;;;;4977937;28;20288;-56
2023/05/14 00:47:52;;;;;;;13.85;7.45;;;11.40;99.90;;;;;;4972998;28;20089;-57
2023/05/14 00:50:18;;;;;;;13.75;7.38;;;11.30;99.90;;;;;;4977425;28;20066;-57
2023/05/14 00:52:44;;;;;;;14.82;6.95;;;11.30;99.90;;;;;;4963648;28;20058;-56
2023/05/14 00:55:15;;;;;;;14.80;7.00;;;11.30;99.90;;;;;;4970822;28;20042;-57
2023/05/14 00:57:41;;;;;;;10.18;6.65;;;11.30;99.90;;;;;;4975180;28;20481;-55
2023/05/14 01:00:08;;;;;;;12.38;6.75;;;11.30;99.90;;;;;;4953918;28;20051;-57
2023/05/14 01:02:34;;;;;;;16.98;7.35;;;11.30;99.90;;;;;;4973593;28;20129;-56
2023/05/14 01:05:01;;;;;;;17.45;7.55;;;11.30;99.90;;;;;;4960390;28;20050;-60
2023/05/14 01:07:49;;;;;;;11.45;6.30;;;11.30;99.90;;;;;;4971984;28;20043;-55
2023/05/14 01:10:40;;;;;;;12.90;6.53;;;11.30;99.90;;;;;;4927357;28;20493;-56
2023/05/14 01:13:36;;;;;;;11.02;6.32;;;11.20;99.90;;;;;;4973398;28;20109;-56
2023/05/14 01:16:03;;;;;;;10.05;6.45;;;11.20;99.90;;;;;;4937420;28;20508;-57
2023/05/14 01:18:31;;;;;;;15.00;7.07;;;11.20;99.90;;;;;;4973407;28;20053;-57
2023/05/14 01:20:57;;;;;;;14.32;6.47;;;11.20;99.90;;;;;;4976708;28;20054;-56
2023/05/14 01:23:22;;;;;;;9.60;6.55;;;11.20;99.90;;;;;;4973992;28;20038;-56
2023/05/14 01:25:48;;;;;;;11.88;6.75;;;11.20;99.90;;;;;;4956355;28;20133;-56
2023/05/14 01:28:20;;;;;;;15.48;6.53;;;11.20;99.90;;;;;;4954790;28;20585;-55
2023/05/14 01:31:10;;;;;;;14.23;7.30;;;11.20;99.90;;;;;;4954681;28;20493;-56
2023/05/14 01:33:36;;;;;;;13.98;6.95;;;11.10;99.90;;;;;;4970075;28;20058;-57
2023/05/14 01:36:03;;;;;;;16.48;7.38;;;11.10;99.90;;;;;;4974558;28;20069;-56
2023/05/14 01:38:30;;;;;;;14.75;6.90;;;11.10;99.90;;;;;;4972917;28;20137;-57
2023/05/14 01:40:56;;;;;;;10.82;6.80;;;11.10;99.90;;;;;;4974779;28;20449;-55
2023/05/14 01:43:23;;;;;;;15.18;6.72;;;11.10;99.90;;;;;;4972674;28;20043;-53
2023/05/14 01:45:48;;;;;;;11.05;6.75;;;11.10;99.90;;;;;;4973183;28;20116;-56
2023/05/14 01:48:14;;;;;;;11.98;7.30;;;11.10;99.90;;;;;;4974422;28;20042;-57
2023/05/14 01:50:40;;;;;;;13.40;7.53;;;11.10;99.90;;;;;;4976599;28;20046;-56
2023/05/14 01:53:06;;;;;;;19.63;7.28;;;11.00;99.90;;;;;;4957631;28;20048;-57
2023/05/14 01:55:32;;;;;;;13.95;8.70;;;11.00;99.90;;;;;;4974558;28;20050;-56
2023/05/14 01:57:58;;;;;;;17.67;10.40;;;11.00;99.90;;;;;;4977784;28;20459;-56
2023/05/14 02:00:24;;;;;;;14.52;10.20;;;10.90;99.90;;;;;;4958722;28;20073;-56
2023/05/14 02:02:50;;;;;;;16.67;11.02;;;10.90;99.90;;;;;;4978932;28;20489;-57
2023/05/14 02:05:16;;;;;;;20.42;10.60;;;10.90;99.90;;;;;;4977127;28;20046;-56
2023/05/14 02:07:42;;;;;;;20.98;11.13;;;10.90;99.90;;;;;;4972098;28;20026;-54
2023/05/14 02:10:08;;;;;;;19.20;11.15;;;10.90;99.90;;;;;;4972829;28;20043;-56
2023/05/14 02:12:34;;;;;;;18.77;11.43;;;10.90;99.90;;;;;;4970342;28;20069;-56
2023/05/14 02:15:00;;;;;;;20.70;11.30;;;10.90;99.90;;;;;;4954188;28;20038;-55
2023/05/14 02:17:26;;;;;;;18.50;11.10;;;10.90;99.90;;;;;;4971583;28;20053;-56
2023/05/14 02:19:51;;;;;;;16.63;10.88;;;10.90;99.90;;;;;;4971256;28;20053;-56
2023/05/14 02:22:17;;;;;;;21.98;10.90;;;10.90;99.90;;;;;;4973134;28;20100;-55
2023/05/14 02:24:43;;;;;;;19.92;10.70;;;10.90;99.90;;;;;;4954946;28;20655;-55
2023/05/14 02:27:11;;;;;;;20.30;10.43;;;10.90;99.90;;;;;;4972223;28;20056;-56
2023/05/14 02:29:37;;;;;;;19.67;9.90;;;10.80;99.90;;;;;;4974979;28;20050;-56
2023/05/14 02:32:03;;;;;;;21.15;9.77;;;10.90;99.90;;;;;;4973053;28;20485;-56
2023/05/14 02:34:28;;;;;;;22.13;9.65;;;10.90;99.90;;;;;;4972555;28;20133;-56
2023/05/14 02:36:54;;;;;;;21.02;10.10;;;10.90;99.90;;;;;;4953434;28;20397;-57
2023/05/14 02:39:20;;;;;;;28.60;10.57;;;10.90;99.90;;;;;;4972748;28;20183;-56
2023/05/14 02:41:46;;;;;;;21.67;10.38;;;10.90;99.90;;;;;;4971832;28;20049;-56
2023/05/14 02:44:11;;;;;;;25.05;10.35;;;10.90;99.90;;;;;;4971257;28;20105;-56
2023/05/14 02:46:37;;;;;;;19.25;10.10;;;10.90;99.90;;;;;;4973976;28;20039;-57
2023/05/14 02:49:03;;;;;;;23.52;10.27;;;10.90;99.90;;;;;;4973839;28;20129;-56
2023/05/14 02:51:28;;;;;;;19.33;9.30;;;10.90;99.90;;;;;;4957340;28;20047;-57
2023/05/14 02:53:54;;;;;;;20.00;10.55;;;10.90;99.90;;;;;;4970873;28;20500;-56
2023/05/14 02:56:21;;;;;;;23.88;12.02;;;10.90;99.90;;;;;;4972715;28;20490;-57
2023/05/14 02:58:46;;;;;;;24.67;12.52;;;10.90;99.90;;;;;;4954529;28;20042;-56
2023/05/14 03:01:12;;;;;;;25.25;13.07;;;10.90;99.90;;;;;;4973731;28;20125;-55
2023/05/14 03:03:39;;;;;;;31.35;13.65;;;10.90;99.90;;;;;;4970084;28;20054;-56
2023/05/14 03:06:05;;;;;;;30.83;14.35;;;10.90;99.90;;;;;;4976442;28;20042;-55
2023/05/14 03:08:30;;;;;;;23.42;13.90;;;10.90;99.90;;;;;;4973143;28;20045;-56
2023/05/14 03:10:56;;;;;;;23.75;13.30;;;10.90;99.90;;;;;;4958373;28;20054;-56
2023/05/14 03:13:22;;;;;;;22.88;13.80;;;10.90;99.90;;;;;;4956699;28;21213;-54
2023/05/14 03:15:48;;;;;;;28.48;13.82;;;10.80;99.90;;;;;;4974146;28;20053;-55
2023/05/14 03:18:14;;;;;;;23.83;13.25;;;10.80;99.90;;;;;;4972105;28;20049;-56
2023/05/14 03:20:40;;;;;;;29.70;13.27;;;10.80;99.90;;;;;;4969102;28;20112;-56
2023/05/14 03:23:06;;;;;;;29.23;13.75;;;10.80;99.90;;;;;;4974617;28;20078;-55
2023/05/14 03:25:33;;;;;;;24.15;12.98;;;10.80;99.90;;;;;;4973750;28;20141;-56
2023/05/14 03:27:59;;;;;;;28.27;12.80;;;10.80;99.90;;;;;;4975898;28;20485;-56
2023/05/14 03:30:24;;;;;;;21.58;12.07;;;10.80;99.90;;;;;;4971875;28;20049;-55
2023/05/14 03:32:50;;;;;;;29.48;12.70;;;10.80;99.90;;;;;;4972096;28;20038;-55
2023/05/14 03:35:16;;;;;;;26.38;13.30;;;10.70;99.90;;;;;;4976229;28;20046;-56
2023/05/14 03:37:42;;;;;;;27.88;12.95;;;10.70;99.90;;;;;;4965217;28;20496;-55
2023/05/14 03:40:08;;;;;;;25.00;12.63;;;10.70;99.90;;;;;;4975062;28;20046;-56
2023/05/14 03:42:34;;;;;;;23.13;12.85;;;10.70;99.90;;;;;;4957627;28;20169;-54
2023/05/14 03:45:00;;;;;;;24.55;11.68;;;10.70;99.90;;;;;;4958780;28;20058;-57
2023/05/14 03:47:25;;;;;;;27.30;11.85;;;10.70;99.90;;;;;;4975392;28;20089;-56
2023/05/14 03:49:51;;;;;;;23.45;11.57;;;10.60;99.90;;;;;;4979343;28;20067;-56
2023/05/14 03:52:17;;;;;;;25.52;11.43;;;10.60;99.90;;;;;;4977657;28;20061;-56
2023/05/14 03:54:43;;;;;;;22.48;11.50;;;10.60;99.90;;;;;;4977014;28;20046;-55
2023/05/14 03:57:08;;;;;;;23.27;11.40;;;10.60;99.90;;;;;;4975371;28;20051;-56
2023/05/14 03:59:34;;;;;;;20.05;11.02;;;10.60;99.90;;;;;;4974842;28;20828;-56
2023/05/14 04:02:00;;;;;;;26.77;10.48;;;10.60;99.90;;;;;;4976228;28;20173;-56
2023/05/14 04:04:26;;;;;;;21.77;10.05;;;10.60;99.90;;;;;;4976607;28;20626;-56
2023/05/14 04:06:51;;;;;;;19.75;9.77;;;10.60;99.90;;;;;;4977657;28;20478;-55
2023/05/14 04:09:17;;;;;;;20.75;9.80;;;10.60;99.90;;;;;;4977237;28;21232;-56
2023/05/14 04:11:43;;;;;;;17.95;9.70;;;10.60;99.90;;;;;;4975622;28;20084;-55
2023/05/14 04:14:08;;;;;;;18.02;9.55;;;10.60;99.90;;;;;;4974354;28;20078;-56
2023/05/14 04:16:34;;;;;;;21.52;9.93;;;10.60;99.90;;;;;;4946618;28;20090;-56
2023/05/14 04:19:02;;;;;;;18.25;9.25;;;10.60;99.90;;;;;;4976909;28;20035;-56
2023/05/14 04:21:28;;;;;;;16.50;8.77;;;10.60;99.90;;;;;;4976239;28;20055;-56
2023/05/14 04:23:54;;;;;;;16.25;8.02;;;10.60;99.90;;;;;;4975781;28;20112;-55
2023/05/14 04:26:20;;;;;;;19.75;9.25;;;10.70;99.90;;;;;;4957862;28;20639;-55
2023/05/14 04:28:45;;;;;;;24.55;9.70;;;10.70;99.90;;;;;;4962899;28;20058;-55
2023/05/14 04:31:11;;;;;;;19.75;7.97;;;10.70;99.90;;;;;;4977524;28;20070;-56
2023/05/14 04:33:37;;;;;;;19.85;8.98;;;10.80;99.90;;;;;;4973850;28;20585;-57
2023/05/14 04:36:03;;;;;;;20.38;9.32;;;10.80;99.90;;;;;;4977260;28;20034;-57
2023/05/14 04:38:30;;;;;;;22.27;9.43;;;10.80;99.90;;;;;;4962747;28;20034;-57
2023/05/14 04:40:57;;;;;;;19.65;9.23;;;10.90;99.90;;;;;;4976143;28;20045;-55
2023/05/14 04:43:23;;;;;;;22.35;9.25;;;10.90;99.90;;;;;;4974089;28;20131;-56
2023/05/14 04:45:49;;;;;;;22.75;9.25;;;10.90;99.90;;;;;;4973306;28;20039;-56
2023/05/14 04:48:16;;;;;;;23.70;9.63;;;10.90;99.90;;;;;;4976658;28;20562;-55
2023/05/14 04:50:43;;;;;;;23.40;9.98;;;11.00;99.90;;;;;;4972911;28;20386;-55
2023/05/14 04:53:09;;;;;;;21.17;9.48;;;11.00;99.90;;;;;;4976214;28;21766;-55
2023/05/14 04:55:35;;;;;;;24.67;10.07;;;11.10;99.90;;;;;;4976341;28;20054;-56
2023/05/14 04:58:01;;;;;;;29.00;10.48;;;11.10;99.90;;;;;;4975829;28;20038;-56
2023/05/14 05:00:28;;;;;;;25.27;11.13;;;11.20;99.90;;;;;;4977959;28;20397;-57
2023/05/14 05:02:54;;;;;;;30.20;11.48;;;11.30;99.90;;;;;;4976781;28;20077;-55
2023/05/14 05:05:20;;;;;;;29.40;11.57;;;11.30;99.90;;;;;;4971946;28;20470;-56
2023/05/14 05:07:46;;;;;;;31.00;12.05;;;11.40;99.90;;;;;;4973624;28;20129;-56
2023/05/14 05:10:12;;;;;;;26.83;12.45;;;11.40;99.90;;;;;;4973499;28;20189;-56
2023/05/14 05:12:37;;;;;;;28.27;11.82;;;11.50;99.90;;;;;;4975869;28;20039;-54
2023/05/14 05:15:04;;;;;;;30.13;11.85;;;11.50;99.90;;;;;;4976640;28;20078;-56
2023/05/14 05:17:30;;;;;;;28.73;12.45;;;11.50;99.90;;;;;;4974344;28;20125;-56
2023/05/14 05:19:56;;;;;;;29.20;12.27;;;11.60;99.90;;;;;;4976517;28;20266;-56
2023/05/14 05:22:22;;;;;;;28.40;12.13;;;11.70;99.90;;;;;;4974986;28;20117;-56
2023/05/14 05:24:48;;;;;;;33.72;12.00;;;11.70;99.90;;;;;;4972537;28;20046;-56
2023/05/14 05:27:14;;;;;;;26.23;11.18;;;11.70;99.90;;;;;;4974115;28;20078;-56
2023/05/14 05:29:39;;;;;;;23.77;11.02;;;11.80;99.90;;;;;;4973996;28;20166;-56
2023/05/14 05:32:06;;;;;;;31.45;11.65;;;11.80;99.90;;;;;;4975129;28;20051;-55
2023/05/14 05:34:32;;;;;;;23.30;10.88;;;11.90;99.90;;;;;;4958229;28;20051;-56
2023/05/14 05:36:57;;;;;;;33.80;11.48;;;12.00;99.90;;;;;;4974544;28;20174;-56
2023/05/14 05:39:23;;;;;;;38.05;10.43;;;12.00;99.90;;;;;;4960242;28;20113;-55
2023/05/14 05:41:49;;;;;;;25.52;10.50;;;12.00;99.90;;;;;;4977402;28;20046;-56
2023/05/14 05:44:15;;;;;;;21.13;9.77;;;12.10;99.90;;;;;;4974219;28;20051;-56
2023/05/14 05:46:41;;;;;;;22.63;9.43;;;12.10;99.90;;;;;;4976158;28;20757;-55
2023/05/14 05:49:06;;;;;;;23.45;10.10;;;12.20;99.90;;;;;;4973633;28;20050;-55
2023/05/14 05:51:32;;;;;;;23.80;8.95;;;12.30;99.90;;;;;;4953394;28;20046;-55
2023/05/14 05:53:58;;;;;;;25.25;8.95;;;12.30;99.90;;;;;;4968753;28;20764;-56
2023/05/14 05:56:23;;;;;;;22.08;9.30;;;12.40;99.90;;;;;;4974124;28;20043;-55
2023/05/14 05:58:49;;;;;;;19.95;8.80;;;12.50;99.90;;;;;;4977078;28;20122;-55
2023/05/14 06:01:15;;;;;;;20.15;8.60;;;12.60;99.90;;;;;;4971868;28;20054;-56
2023/05/14 06:03:41;;;;;;;23.05;8.82;;;12.70;99.90;;;;;;4958324;28;20090;-56
2023/05/14 06:06:07;;;;;;;20.67;8.18;;;12.80;99.90;;;;;;4973128;28;21195;-57
2023/05/14 06:08:32;;;;;;;16.48;8.40;;;12.90;99.90;;;;;;4972575;28;20046;-57
2023/05/14 06:10:58;;;;;;;21.02;8.55;;;13.10;99.90;;;;;;4972040;28;20042;-56
2023/05/14 06:13:24;;;;;;;17.80;7.85;;;13.20;99.90;;;;;;4967242;28;20046;-56
2023/05/14 06:15:49;;;;;;;20.27;7.60;;;13.30;99.90;;;;;;4966881;28;20481;-56
2023/05/14 06:18:15;;;;;;;20.98;8.18;;;13.40;99.90;;;;;;4969691;28;20073;-55
2023/05/14 06:20:41;;;;;;;18.17;7.82;;;13.50;99.90;;;;;;4942210;28;20843;-57
2023/05/14 06:23:07;;;;;;;18.58;8.40;;;13.60;99.90;;;;;;4968226;28;20500;-56
2023/05/14 06:25:33;;;;;;;18.73;8.40;;;13.60;99.90;;;;;;4974973;28;20057;-56
2023/05/14 06:27:59;;;;;;;21.60;8.63;;;13.70;99.90;;;;;;4966051;28;20100;-56
2023/05/14 06:30:25;;;;;;;17.27;7.82;;;13.80;99.90;;;;;;4971502;28;20208;-56
2023/05/14 06:32:51;;;;;;;19.80;7.85;;;13.90;99.90;;;;;;4970703;28;20058;-55
2023/05/14 06:35:20;;;;;;;20.75;8.15;;;14.00;99.90;;;;;;4953781;28;20043;-56
2023/05/14 06:37:45;;;;;;;15.25;7.47;;;14.00;99.90;;;;;;4973192;28;20097;-56
2023/05/14 06:40:14;;;;;;;17.02;7.18;;;14.10;99.90;;;;;;4972052;28;20050;-55
2023/05/14 06:42:40;;;;;;;19.38;8.20;;;14.10;99.90;;;;;;4973073;28;20070;-55
2023/05/14 06:45:06;;;;;;;20.40;7.93;;;14.20;99.90;;;;;;4971289;28;20081;-54
2023/05/14 06:47:32;;;;;;;20.40;8.82;;;14.20;99.90;;;;;;4960434;28;20062;-56
2023/05/14 06:49:59;;;;;;;19.40;8.45;;;14.20;99.90;;;;;;4968321;28;20129;-57
2023/05/14 06:52:25;;;;;;;16.00;8.25;;;14.30;99.90;;;;;;4974302;28;20043;-56
2023/05/14 06:54:51;;;;;;;17.63;8.35;;;14.30;99.90;;;;;;4973606;28;20038;-55
2023/05/14 06:57:17;;;;;;;14.75;8.23;;;14.30;99.90;;;;;;4970282;28;20041;-56
2023/05/14 06:59:42;;;;;;;19.70;8.30;;;14.40;99.90;;;;;;4967927;28;20052;-56
2023/05/14 07:02:08;;;;;;;18.52;8.48;;;14.40;99.90;;;;;;4972658;28;20505;-56
2023/05/14 07:04:35;;;;;;;19.48;8.77;;;14.50;99.90;;;;;;4973766;28;20046;-56
2023/05/14 07:07:00;;;;;;;19.75;8.43;;;14.50;99.90;;;;;;4973683;28;20156;-56
2023/05/14 07:09:27;;;;;;;18.38;8.05;;;14.60;99.90;;;;;;4972013;28;20466;-56
2023/05/14 07:11:52;;;;;;;16.15;8.55;;;14.60;99.90;;;;;;4958820;28;20046;-56
2023/05/14 07:14:18;;;;;;;16.33;7.75;;;14.60;99.90;;;;;;4967588;28;20050;-56
2023/05/14 07:16:45;;;;;;;15.38;7.95;;;14.70;99.90;;;;;;4978311;28;20039;-54
2023/05/14 07:19:11;;;;;;;16.52;8.02;;;14.70;99.90;;;;;;4974632;28;20045;-56
2023/05/14 07:21:37;;;;;;;15.50;7.55;;;14.80;99.90;;;;;;4957913;28;20055;-54
2023/05/14 07:24:03;;;;;;;16.35;7.65;;;14.90;99.90;;;;;;4963828;28;20070;-56
2023/05/14 07:26:30;;;;;;;16.13;7.72;;;14.90;99.90;;;;;;4970143;28;20053;-55
2023/05/14 07:28:56;;;;;;;18.30;8.10;;;15.00;99.90;;;;;;4967813;28;20121;-55
2023/05/14 07:31:21;;;;;;;14.18;7.15;;;15.00;99.90;;;;;;4955647;28;20039;-56
2023/05/14 07:33:47;;;;;;;19.63;7.93;;;15.00;99.90;;;;;;4972998;28;20038;-57
2023/05/14 07:36:13;;;;;;;18.50;7.95;;;15.10;99.90;;;;;;4972008;28;20126;-55
2023/05/14 07:38:39;;;;;;;19.85;8.00;;;15.10;99.90;;;;;;4971473;28;20912;-56
2023/05/14 07:41:04;;;;;;;17.70;6.90;;;15.20;99.90;;;;;;4976683;28;20394;-56
2023/05/14 07:43:30;;;;;;;18.58;6.93;;;15.30;99.90;;;;;;4972519;28;20068;-57
2023/05/14 07:45:56;;;;;;;21.92;7.20;;;15.30;99.90;;;;;;4970816;28;20576;-56
2023/05/14 07:48:22;;;;;;;17.42;6.72;;;15.40;99.90;;;;;;4969147;28;20058;-56
2023/05/14 07:50:48;;;;;;;25.23;6.97;;;15.40;99.90;;;;;;4968990;28;20078;-56
2023/05/14 07:53:14;;;;;;;14.98;6.25;;;15.50;99.90;;;;;;4971841;28;20046;-56
2023/05/14 07:55:40;;;;;;;17.17;6.63;;;15.60;99.90;;;;;;4970394;28;20088;-57
2023/05/14 07:58:06;;;;;;;16.00;6.55;;;15.70;99.90;;;;;;4972758;28;20042;-56
2023/05/14 08:00:32;;;;;;;11.95;6.50;;;15.90;99.90;;;;;;4969604;28;20054;-56
2023/05/14 08:02:58;;;;;;;14.77;6.72;;;15.90;99.90;;;;;;4952859;28;20134;-56
2023/05/14 08:05:24;;;;;;;16.83;6.95;;;16.00;99.90;;;;;;4949357;28;20053;-56
2023/05/14 08:07:49;;;;;;;17.98;7.25;;;16.00;99.90;;;;;;4942517;28;20039;-56
2023/05/14 08:10:15;;;;;;;15.25;7.53;;;16.10;99.90;;;;;;4905012;28;20050;-56
2023/05/14 08:12:41;;;;;;;19.50;7.07;;;16.20;99.90;;;;;;4944367;28;20502;-56
2023/05/14 08:15:08;;;;;;;18.27;7.20;;;16.30;99.90;;;;;;4940631;28;20053;-57
2023/05/14 08:17:34;;;;;;;16.48;7.13;;;16.40;99.90;;;;;;4945858;28;22371;-56
2023/05/14 08:20:00;;;;;;;18.98;6.88;;;16.50;99.90;;;;;;4948079;28;20089;-56
2023/05/14 08:22:26;;;;;;;18.17;6.97;;;16.50;99.90;;;;;;4950179;28;20062;-57
2023/05/14 08:24:52;;;;;;;17.63;7.13;;;16.60;99.90;;;;;;4953861;28;20070;-56
2023/05/14 08:27:17;;;;;;;16.13;6.97;;;16.60;99.90;;;;;;4948252;28;20035;-56
2023/05/14 08:29:43;;;;;;;14.45;6.63;;;16.70;99.90;;;;;;4951866;28;20155;-56
2023/05/14 08:32:09;;;;;;;18.17;7.38;;;16.70;99.90;;;;;;4953431;28;20811;-58
2023/05/14 08:34:35;;;;;;;15.65;6.70;;;16.80;99.90;;;;;;4949609;28;20530;-58
2023/05/14 08:37:01;;;;;;;16.60;7.10;;;16.90;99.90;;;;;;4948352;28;20047;-58
2023/05/14 08:39:27;;;;;;;13.07;6.25;;;17.00;99.90;;;;;;4943572;28;20050;-58
2023/05/14 08:41:54;;;;;;;14.02;6.65;;;17.00;99.90;;;;;;4951339;28;20045;-58
2023/05/14 08:44:35;;;;;;;13.02;6.38;;;17.10;99.90;;;;;;4953602;28;20521;-57
2023/05/14 08:47:01;;;;;;;16.67;6.72;;;17.20;99.90;;;;;;4958024;28;20057;-59
2023/05/14 08:49:35;;;;;;;13.80;6.47;;;17.20;99.90;;;;;;4947861;28;20047;-59
2023/05/14 08:52:01;;;;;;;13.20;6.65;;;17.30;99.90;;;;;;4950256;28;20386;-61
2023/05/14 08:54:28;;;;;;;17.38;6.90;;;17.30;99.90;;;;;;4945623;28;20043;-60
2023/05/14 08:56:54;;;;;;;19.83;6.68;;;17.30;99.90;;;;;;4943002;28;20053;-60
2023/05/14 08:59:20;;;;;;;14.43;6.55;;;17.40;99.90;;;;;;4946832;28;22378;-60
2023/05/14 09:01:50;;;;;;;15.75;6.78;;;17.40;99.90;;;;;;4947902;28;20081;-59
2023/05/14 09:04:22;;;;;;;13.35;6.97;;;17.50;99.90;;;;;;4957387;28;20050;-60
2023/05/14 09:06:53;;;;;;;20.52;7.00;;;17.70;99.90;;;;;;4959182;28;20050;-59
2023/05/14 09:09:22;;;;;;;15.13;6.88;;;17.80;99.90;;;;;;4967050;28;20046;-59
2023/05/14 09:11:49;;;;;;;18.15;7.03;;;17.90;99.90;;;;;;4971663;28;20256;-61
2023/05/14 09:14:15;;;;;;;17.90;7.10;;;18.00;99.90;;;;;;4971472;28;20051;-61
2023/05/14 09:16:44;;;;;;;14.65;6.95;;;18.10;99.90;;;;;;4942475;28;20184;-60
2023/05/14 09:19:12;;;;;;;13.00;6.40;;;18.10;99.90;;;;;;4958085;28;20153;-60
2023/05/14 09:21:37;;;;;;;14.50;6.60;;;18.10;99.90;;;;;;4962540;28;20477;-60
2023/05/14 09:24:03;;;;;;;11.05;6.97;;;18.10;99.90;;;;;;4955787;28;20144;-59
2023/05/14 09:26:32;;;;;;;16.88;7.72;;;18.10;99.90;;;;;;4981398;28;20089;-59
2023/05/14 09:29:00;;;;;;;15.88;6.88;;;18.10;99.90;;;;;;4958698;28;20484;-60
2023/05/14 09:31:31;;;;;;;11.23;6.43;;;18.10;99.90;;;;;;4976148;28;20074;-59
2023/05/14 09:33:58;;;;;;;17.77;8.00;;;18.20;99.90;;;;;;4981957;28;20149;-59
2023/05/14 09:36:25;;;;;;;12.93;6.45;;;18.30;99.90;;;;;;4945864;28;20521;-61
2023/05/14 09:39:02;;;;;;;14.55;6.40;;;18.40;99.90;;;;;;4978936;28;20077;-59
2023/05/14 09:41:28;;;;;;;19.30;7.00;;;18.50;99.90;;;;;;4979636;28;20445;-60
2023/05/14 09:43:55;;;;;;;15.43;7.35;;;18.70;99.90;;;;;;4978323;28;20047;-60
2023/05/14 09:46:22;;;;;;;16.42;7.00;;;18.80;99.90;;;;;;4982224;28;20121;-60
2023/05/14 09:48:48;;;;;;;13.55;6.93;;;18.90;99.90;;;;;;4976551;28;20038;-59
2023/05/14 09:51:19;;;;;;;19.42;6.95;;;19.00;99.90;;;;;;4979073;28;20125;-60
2023/05/14 09:53:45;;;;;;;14.82;6.78;;;19.10;99.90;;;;;;4979568;28;21162;-59
2023/05/14 09:56:11;;;;;;;24.52;7.95;;;19.20;99.90;;;;;;4978514;28;20453;-59
2023/05/14 09:58:37;;;;;;;16.85;7.53;;;19.30;99.90;;;;;;4972993;28;20047;-59
2023/05/14 10:01:04;;;;;;;15.75;7.50;;;19.40;99.90;;;;;;4975276;28;20050;-60
2023/05/14 10:03:31;;;;;;;13.73;7.03;;;19.60;99.90;;;;;;4976860;28;20058;-59
2023/05/14 10:06:04;;;;;;;17.40;6.90;;;19.80;99.90;;;;;;4976931;28;20046;-59
2023/05/14 10:08:34;;;;;;;20.83;7.60;;;19.90;99.90;;;;;;4979047;28;20148;-59
2023/05/14 10:11:03;;;;;;;14.93;6.90;;;20.10;99.90;;;;;;4975742;28;20058;-60
2023/05/14 10:13:38;;;;;;;16.60;6.75;;;20.10;99.90;;;;;;4978257;28;20042;-61
2023/05/14 10:16:25;;;;;;;12.18;6.90;;;20.10;99.90;;;;;;4962347;28;20041;-60
2023/05/14 10:18:55;;;;;;;18.15;6.88;;;20.20;99.90;;;;;;4978492;28;20046;-58
2023/05/14 10:21:22;;;;;;;16.50;7.63;;;20.30;99.90;;;;;;4977019;28;20049;-58
2023/05/14 10:23:49;;;;;;;19.13;7.15;;;20.30;99.90;;;;;;4960004;28;20089;-58
2023/05/14 10:26:15;;;;;;;16.65;7.80;;;20.30;99.90;;;;;;4961379;28;20061;-60
2023/05/14 10:28:41;;;;;;;10.85;6.88;;;20.30;99.90;;;;;;4948814;28;20129;-60
2023/05/14 10:31:11;;;;;;;14.88;6.78;;;20.20;99.90;;;;;;4974850;28;20520;-60
2023/05/14 10:33:50;;;;;;;13.90;7.28;;;20.20;99.90;;;;;;4962626;28;20153;-61
2023/05/14 10:36:17;;;;;;;14.18;7.05;;;20.30;99.90;;;;;;4958760;28;20042;-59
2023/05/14 10:38:43;;;;;;;13.70;8.00;;;20.40;99.90;;;;;;4976156;28;20038;-58
2023/05/14 10:41:20;;;;;;;12.88;6.93;;;20.60;99.90;;;;;;4977366;28;20041;-58
2023/05/14 10:43:46;;;;;;;14.77;7.78;;;20.90;99.90;;;;;;4976554;28;20078;-58
2023/05/14 10:46:13;;;;;;;14.48;6.50;;;21.10;99.90;;;;;;4978414;28;20396;-59
2023/05/14 10:48:41;;;;;;;11.52;7.18;;;21.40;99.90;;;;;;4957133;28;20493;-59
2023/05/14 10:51:11;;;;;;;16.23;7.50;;;21.50;99.90;;;;;;4978942;28;20046;-60
2023/05/14 10:53:39;;;;;;;15.32;7.70;;;21.60;99.90;;;;;;4969514;28;20045;-61
2023/05/14 10:56:07;;;;;;;18.55;7.15;;;21.60;99.90;;;;;;4978799;28;20042;-59
2023/05/14 10:58:37;;;;;;;13.40;7.22;;;21.70;99.90;;;;;;4967552;28;20042;-58
2023/05/14 11:01:08;;;;;;;17.05;7.18;;;21.70;99.90;;;;;;4977899;28;20403;-57
2023/05/14 11:03:45;;;;;;;14.48;7.22;;;21.70;99.90;;;;;;4976709;28;20549;-58
2023/05/14 11:06:13;;;;;;;10.75;7.07;;;21.80;99.90;;;;;;4960290;28;20494;-58
2023/05/14 11:08:39;;;;;;;13.60;7.07;;;21.90;99.90;;;;;;4960372;28;20140;-61
2023/05/14 11:11:07;;;;;;;14.38;7.50;;;22.00;99.90;;;;;;4978089;28;20043;-59
2023/05/14 11:13:33;;;;;;;12.48;7.07;;;22.20;99.90;;;;;;4960146;28;20043;-59
2023/05/14 11:16:01;;;;;;;13.32;7.30;;;22.40;99.90;;;;;;4966715;28;20035;-59
2023/05/14 11:18:28;;;;;;;11.05;6.68;;;22.60;99.90;;;;;;4961523;28;20041;-60
2023/05/14 11:21:00;;;;;;;14.07;6.95;;;22.80;99.90;;;;;;4969082;28;20050;-60
2023/05/14 11:23:27;;;;;;;11.20;5.93;;;22.90;99.90;;;;;;4978808;28;20051;-59
2023/05/14 11:25:53;;;;;;;17.02;5.97;;;22.80;99.60;;;;;;4977143;28;20054;-61
2023/05/14 11:28:23;;;;;;;7.05;4.50;;;22.80;98.90;;;;;;4977589;28;20151;-60
2023/05/14 11:30:52;;;;;;;10.05;5.55;;;22.70;97.40;;;;;;4977389;28;20710;-60
2023/05/14 11:33:19;;;;;;;12.18;5.57;;;22.70;97.20;;;;;;4959519;28;20085;-60
2023/05/14 11:35:48;;;;;;;12.02;5.80;;;22.70;96.80;;;;;;4967730;28;20042;-61
2023/05/14 11:38:20;;;;;;;8.73;5.90;;;22.80;97.10;;;;;;4958737;28;20039;-61
2023/05/14 11:40:57;;;;;;;12.00;5.90;;;22.90;97.10;;;;;;4975782;28;20634;-60
2023/05/14 11:43:23;;;;;;;6.85;4.30;;;23.00;96.70;;;;;;4977699;28;20494;-59
2023/05/14 11:45:51;;;;;;;15.20;5.30;;;23.10;95.40;;;;;;4975755;28;20053;-58
2023/05/14 11:48:18;;;;;;;8.32;4.88;;;23.30;93.90;;;;;;4974716;28;20096;-59
2023/05/14 11:50:48;;;;;;;11.23;6.15;;;23.40;92.30;;;;;;4959466;28;20049;-58
2023/05/14 11:53:30;;;;;;;8.65;5.30;;;23.50;91.70;;;;;;4977086;28;20045;-58
2023/05/14 11:55:58;;;;;;;11.05;5.13;;;23.40;91.00;;;;;;4979020;28;20133;-58
2023/05/14 11:58:24;;;;;;;9.52;5.93;;;23.40;91.50;;;;;;4980528;28;20393;-59
2023/05/14 12:00:54;;;;;;;11.20;5.85;;;23.50;91.80;;;;;;4963369;28;20410;-57
2023/05/14 12:03:24;;;;;;;12.98;6.60;;;23.70;92.10;;;;;;4978621;28;20349;-58
2023/05/14 12:06:00;;;;;;;10.73;5.95;;;23.90;92.40;;;;;;4981842;28;20065;-58
2023/05/14 12:08:28;;;;;;;8.25;4.88;;;24.10;91.30;;;;;;4957495;28;20162;-58
2023/05/14 12:10:54;;;;;;;11.25;6.30;;;24.10;87.40;;;;;;4980546;28;20100;-59
2023/05/14 12:13:21;;;;;;;12.32;6.72;;;24.00;88.20;;;;;;4967944;28;20049;-58
2023/05/14 12:15:53;;;;;;;8.00;5.65;;;24.00;88.50;;;;;;4962867;28;20038;-58
2023/05/14 12:18:19;;;;;;;9.48;5.93;;;24.10;90.20;;;;;;4971567;28;20516;-59
2023/05/14 12:20:50;;;;;;;8.52;5.38;;;24.10;86.20;;;;;;4979406;28;20050;-58
2023/05/14 12:23:16;;;;;;;13.93;5.80;;;24.20;87.00;;;;;;4979350;28;20082;-59
2023/05/14 12:25:51;;;;;;;8.88;5.70;;;24.30;86.80;;;;;;4962664;28;20623;-58
2023/05/14 12:28:18;;;;;;;6.18;5.10;;;24.30;83.50;;;;;;4962355;28;20038;-58
2023/05/14 12:30:54;;;;;;;7.85;5.10;;;24.30;81.30;;;;;;4969054;28;20042;-58
2023/05/14 12:33:22;;;;;;;7.65;4.38;;;24.30;79.90;;;;;;4981031;28;20165;-58
2023/05/14 12:35:48;;;;;;;11.85;4.25;;;24.30;77.90;;;;;;4981190;28;20117;-60